Time;durP1;ratioP1;P1;durP2;ratioP2;P2;SDS_P1;SDS_P2;PMS_P1;PMS_P2;Temp;Humidity;BMP_temperature;BMP_pressure;BME280_temperature;BME280_humidity;BME280_pressure;Samples;Min_cycle;Max_cycle;Signal;HPM_P1;HPM_P2
2021/01/22 00:01:29;;;;;;;8.05;4.72;;;;;;;6.41;71.48;98555.94;4968667;28;20117;-78
2021/01/22 00:03:56;;;;;;;7.65;3.70;;;;;;;6.47;71.09;98556.56;4966771;28;20031;-78
2021/01/22 00:06:24;;;;;;;9.13;4.40;;;;;;;6.48;71.03;98545.13;4965832;28;20094;-79
2021/01/22 00:08:51;;;;;;;7.75;3.92;;;;;;;6.54;70.81;98549.28;4968128;28;20035;-78
2021/01/22 00:11:18;;;;;;;9.85;4.20;;;;;;;6.50;71.09;98549.47;4969420;28;20037;-78
2021/01/22 00:13:45;;;;;;;6.57;3.70;;;;;;;6.42;71.19;98563.78;4969074;28;20030;-78
2021/01/22 00:16:11;;;;;;;4.18;2.25;;;;;;;6.41;71.14;98577.84;4967372;28;20027;-78
2021/01/22 00:18:38;;;;;;;7.07;2.70;;;;;;;6.52;71.08;98594.97;4967054;28;20054;-79
2021/01/22 00:21:05;;;;;;;4.88;2.72;;;;;;;6.48;71.21;98595.09;4968161;28;20482;-83
2021/01/22 00:23:37;;;;;;;3.67;2.40;;;;;;;6.46;71.32;98594.28;4967505;28;20038;-80
2021/01/22 00:26:05;;;;;;;5.80;2.40;;;;;;;6.53;71.34;98591.41;4966350;28;20059;-78
2021/01/22 00:28:32;;;;;;;8.02;3.10;;;;;;;6.50;71.36;98591.56;4968053;28;20385;-78
2021/01/22 00:30:59;;;;;;;6.55;2.83;;;;;;;6.52;71.46;98597.59;4967323;28;20058;-78
2021/01/22 00:33:26;;;;;;;4.45;2.88;;;;;;;6.34;71.84;98604.44;4949309;28;20050;-78
2021/01/22 00:35:54;;;;;;;6.80;3.42;;;;;;;6.45;71.81;98603.09;4965031;28;20023;-78
2021/01/22 00:38:21;;;;;;;9.30;3.85;;;;;;;6.44;71.62;98625.09;4967402;28;20031;-78
2021/01/22 00:40:47;;;;;;;8.98;3.60;;;;;;;6.37;72.02;98623.59;4966231;28;20038;-79
2021/01/22 00:43:14;;;;;;;8.40;4.38;;;;;;;6.30;72.33;98616.84;4968552;28;20027;-78
2021/01/22 00:45:44;;;;;;;13.93;5.28;;;;;;;6.46;71.85;98612.72;4969039;28;20035;-78
2021/01/22 00:48:11;;;;;;;14.85;5.70;;;;;;;6.48;71.86;98621.41;4968522;28;20110;-78
2021/01/22 00:50:38;;;;;;;10.05;7.03;;;;;;;6.53;71.73;98630.88;4966651;28;20019;-78
2021/01/22 00:53:05;;;;;;;18.67;9.18;;;;;;;6.54;71.73;98632.59;4967262;28;20364;-79
2021/01/22 00:55:33;;;;;;;9.10;7.63;;;;;;;6.57;71.71;98635.13;4968156;28;20030;-79
2021/01/22 00:58:00;;;;;;;9.68;7.07;;;;;;;6.48;72.04;98641.59;4964564;28;20042;-80
2021/01/22 01:00:26;;;;;;;12.98;7.50;;;;;;;6.57;71.15;98637.75;4967884;28;20541;-79
2021/01/22 01:02:52;;;;;;;9.23;7.07;;;;;;;6.59;71.47;98641.16;4966694;28;20079;-79
2021/01/22 01:05:21;;;;;;;8.82;6.43;;;;;;;6.46;72.09;98646.91;4968148;28;20125;-80
2021/01/22 01:07:48;;;;;;;7.93;5.68;;;;;;;6.47;72.00;98646.00;4967693;28;20102;-79
2021/01/22 01:10:15;;;;;;;9.27;5.18;;;;;;;6.47;71.80;98661.78;4966366;28;20037;-79
2021/01/22 01:12:42;;;;;;;6.95;3.83;;;;;;;6.44;71.79;98651.38;4966618;28;20027;-77
2021/01/22 01:15:09;;;;;;;7.00;4.45;;;;;;;6.55;71.67;98652.75;4968033;28;20044;-79
2021/01/22 01:17:36;;;;;;;7.90;4.90;;;;;;;6.55;71.71;98655.38;4968459;28;20102;-78
2021/01/22 01:20:04;;;;;;;7.80;3.90;;;;;;;6.55;71.66;98663.25;4965829;28;20047;-78
2021/01/22 01:22:31;;;;;;;7.40;4.30;;;;;;;6.48;71.97;98668.75;4967335;28;20078;-80
2021/01/22 01:24:58;;;;;;;7.57;4.32;;;;;;;6.52;71.74;98671.25;4966070;28;20046;-79
2021/01/22 01:27:25;;;;;;;10.43;4.90;;;;;;;6.60;71.31;98661.31;4965272;28;20022;-80
2021/01/22 01:29:53;;;;;;;8.82;4.47;;;;;;;6.52;71.77;98668.63;4967244;28;20430;-79
2021/01/22 01:32:20;;;;;;;8.70;4.43;;;;;;;6.61;71.48;98674.41;4966740;28;20395;-80
2021/01/22 01:34:47;;;;;;;7.10;3.15;;;;;;;6.63;71.29;98677.00;4967797;28;20057;-79
2021/01/22 01:37:14;;;;;;;2.90;1.80;;;;;;;6.61;71.27;98690.19;4967491;28;20065;-79
2021/01/22 01:39:41;;;;;;;4.68;1.20;;;;;;;6.52;71.82;98710.72;4969157;28;20533;-79
2021/01/22 01:42:07;;;;;;;0.98;0.52;;;;;;;6.67;71.50;98719.81;4965468;28;20035;-83
2021/01/22 01:44:34;;;;;;;4.10;1.00;;;;;;;6.58;71.92;98723.66;4967542;28;20022;-79
2021/01/22 01:47:01;;;;;;;5.30;0.93;;;;;;;6.47;72.24;98732.81;4967085;28;20045;-78
2021/01/22 01:49:27;;;;;;;1.38;0.88;;;;;;;6.66;71.47;98731.28;4967588;28;20094;-79
2021/01/22 01:51:55;;;;;;;7.47;1.95;;;;;;;6.63;71.59;98727.00;4953174;28;20047;-80
2021/01/22 01:54:22;;;;;;;6.43;2.55;;;;;;;6.52;72.16;98715.97;4967475;28;20024;-78
2021/01/22 01:56:49;;;;;;;7.20;2.65;;;;;;;6.57;71.78;98714.06;4965846;28;20395;-80
2021/01/22 01:59:16;;;;;;;7.90;2.42;;;;;;;6.62;71.53;98727.91;4966444;28;20031;-80
2021/01/22 02:01:45;;;;;;;6.45;3.30;;;;;;;6.65;71.55;98719.88;4967557;28;20044;-80
2021/01/22 02:04:11;;;;;;;4.50;2.72;;;;;;;6.64;71.54;98721.66;4967004;28;20023;-79
2021/01/22 02:06:38;;;;;;;4.25;2.20;;;;;;;6.57;71.64;98735.13;4970698;28;20097;-79
2021/01/22 02:09:06;;;;;;;3.33;1.63;;;;;;;6.61;71.58;98747.22;4968965;28;20042;-79
2021/01/22 02:11:33;;;;;;;2.95;1.55;;;;;;;6.62;71.70;98744.53;4971331;28;20031;-79
2021/01/22 02:14:01;;;;;;;1.95;1.30;;;;;;;6.64;71.29;98752.38;4958519;28;20165;-79
2021/01/22 02:16:28;;;;;;;2.75;1.13;;;;;;;6.67;71.31;98752.25;4970383;28;20019;-82
2021/01/22 02:18:56;;;;;;;3.50;1.02;;;;;;;6.69;71.51;98760.09;4969889;28;20525;-78
2021/01/22 02:26:53;;;;;;;4.07;0.80;;;;;;;6.58;71.35;98776.28;5104566;27;20376;-78
2021/01/22 02:29:20;;;;;;;1.75;1.05;;;;;;;6.61;70.96;98779.66;5089664;28;20038;-79
2021/01/22 02:31:49;;;;;;;3.97;0.80;;;;;;;6.57;71.39;98778.06;5087071;28;20024;-78
2021/01/22 02:34:20;;;;;;;3.00;0.73;;;;;;;6.49;71.80;98782.72;5089562;28;20078;-78
2021/01/22 02:36:48;;;;;;;3.95;0.70;;;;;;;6.55;71.14;98773.78;5089523;28;20031;-79
2021/01/22 02:39:17;;;;;;;1.15;0.38;;;;;;;6.52;71.21;98784.38;5089302;28;20443;-78
2021/01/22 02:41:47;;;;;;;5.35;1.95;;;;;;;6.41;71.33;98782.16;5089476;28;20024;-78
2021/01/22 02:44:14;;;;;;;2.08;0.70;;;;;;;6.44;71.47;98793.44;5089568;28;20103;-80
2021/01/22 02:46:41;;;;;;;1.25;0.57;;;;;;;6.46;71.07;98796.00;5089022;28;20056;-78
2021/01/22 02:49:07;;;;;;;3.05;0.60;;;;;;;6.23;71.65;98795.06;5085942;28;20016;-78
2021/01/22 02:51:34;;;;;;;2.60;0.60;;;;;;;6.31;71.37;98789.53;5089099;28;20032;-79
2021/01/22 02:54:00;;;;;;;8.75;0.90;;;;;;;6.31;71.04;98789.53;5087623;28;20377;-78
2021/01/22 02:56:45;;;;;;;1.80;0.60;;;;;;;6.26;71.08;98796.72;5089086;28;20064;-78
2021/01/22 03:05:14;;;;;;;5.15;0.98;;;;;;;6.00;71.54;98809.00;5171975;27;20352;-77
2021/01/22 03:07:53;;;;;;;1.88;1.48;;;;;;;6.10;71.63;98813.03;5165779;27;20027;-77
2021/01/22 03:10:24;;;;;;;1.85;0.88;;;;;;;6.02;71.50;98812.44;5160259;27;20014;-79
2021/01/22 03:12:54;;;;;;;1.63;0.63;;;;;;;6.12;71.16;98811.22;5158334;27;20075;-78
2021/01/22 03:15:22;;;;;;;1.02;0.40;;;;;;;5.99;71.51;98823.03;5155626;27;20515;-78
2021/01/22 03:17:48;;;;;;;1.95;0.50;;;;;;;6.02;71.48;98815.06;5154973;27;20049;-78
2021/01/22 03:20:17;;;;;;;3.42;0.95;;;;;;;6.08;71.10;98817.50;5160872;27;20041;-79
2021/01/22 03:22:53;;;;;;;9.57;1.10;;;;;;;5.97;71.66;98825.69;5162470;27;20050;-77
2021/01/22 03:25:25;;;;;;;4.68;0.80;;;;;;;5.95;71.77;98824.03;5159792;27;20095;-76
2021/01/22 03:28:00;;;;;;;5.93;1.73;;;;;;;5.94;71.68;98824.94;5152298;27;20054;-77
2021/01/22 03:30:27;;;;;;;6.13;1.30;;;;;;;5.99;71.35;98833.56;5151954;27;20038;-79
2021/01/22 03:32:54;;;;;;;4.40;0.85;;;;;;;5.92;71.50;98838.16;5152457;27;20532;-79
2021/01/22 03:35:20;;;;;;;7.80;1.30;;;;;;;5.99;71.01;98846.69;5151086;27;20039;-78
2021/01/22 03:37:47;;;;;;;2.63;0.93;;;;;;;5.92;71.28;98843.41;5138752;27;20031;-78
2021/01/22 03:40:15;;;;;;;3.78;0.82;;;;;;;5.90;71.18;98857.50;5148755;27;20023;-79
2021/01/22 03:42:45;;;;;;;9.05;1.17;;;;;;;5.79;71.91;98868.34;5151860;27;20164;-78
2021/01/22 03:45:14;;;;;;;3.63;0.68;;;;;;;5.88;71.60;98860.19;5151264;27;20027;-77
2021/01/22 03:47:40;;;;;;;7.30;1.23;;;;;;;5.85;72.06;98870.78;5137141;27;20023;-77
2021/01/22 03:50:08;;;;;;;4.20;1.20;;;;;;;5.93;71.60;98870.53;5151875;27;20064;-78
2021/01/22 03:52:34;;;;;;;9.77;1.85;;;;;;;6.00;71.46;98877.34;5146174;27;20378;-78
2021/01/22 03:55:01;;;;;;;4.40;1.08;;;;;;;5.96;71.45;98879.19;5151937;27;20030;-77
2021/01/22 03:57:28;;;;;;;3.78;0.80;;;;;;;5.93;71.75;98881.94;5142709;27;20023;-77
2021/01/22 03:59:54;;;;;;;3.88;1.33;;;;;;;6.02;71.04;98879.91;5151467;27;20027;-78
2021/01/22 04:02:21;;;;;;;3.25;1.23;;;;;;;5.98;70.63;98887.00;5145650;27;20503;-78
2021/01/22 04:04:47;;;;;;;5.80;1.20;;;;;;;5.95;70.72;98895.00;5151309;27;20114;-79
2021/01/22 04:07:14;;;;;;;6.88;0.80;;;;;;;5.89;70.60;98906.56;5151227;27;20027;-77
2021/01/22 04:09:40;;;;;;;2.75;1.13;;;;;;;5.89;70.85;98913.59;5151453;27;20141;-78
2021/01/22 04:12:07;;;;;;;8.70;1.23;;;;;;;5.78;71.78;98912.19;5151244;27;20030;-79
2021/01/22 04:14:33;;;;;;;6.15;1.00;;;;;;;5.96;71.42;98918.63;5147958;27;20074;-78
2021/01/22 04:17:01;;;;;;;6.55;1.63;;;;;;;6.00;71.37;98914.16;5142258;22;20044;-81
2021/01/22 04:19:27;;;;;;;4.85;1.15;;;;;;;6.05;71.35;98912.22;5097118;28;20403;-83
2021/01/22 04:21:55;;;;;;;8.25;1.70;;;;;;;5.93;71.75;98916.09;5096372;28;20484;-83
2021/01/22 04:24:22;;;;;;;9.45;1.48;;;;;;;5.97;71.94;98917.72;5096171;28;20032;-82
2021/01/22 04:26:48;;;;;;;9.18;2.30;;;;;;;5.99;71.78;98920.31;5080910;28;20025;-82
2021/01/22 04:29:16;;;;;;;11.40;1.58;;;;;;;5.93;72.09;98923.97;5076370;28;20092;-84
2021/01/22 04:31:43;;;;;;;6.55;2.03;;;;;;;5.93;71.87;98926.59;5082608;28;20062;-84
2021/01/22 04:34:09;;;;;;;6.07;1.52;;;;;;;5.95;71.61;98922.16;5086822;28;20422;-83
2021/01/22 04:36:35;;;;;;;10.65;2.80;;;;;;;5.78;72.24;98927.94;5090078;28;20485;-85
2021/01/22 04:39:04;;;;;;;6.40;1.38;;;;;;;5.93;71.75;98923.09;5097742;28;20028;-85
2021/01/22 04:41:31;;;;;;;8.45;1.95;;;;;;;5.91;71.66;98919.69;5102939;28;20092;-83
2021/01/22 04:44:00;;;;;;;6.78;2.80;;;;;;;5.88;71.77;98932.91;5099304;28;20342;-84
2021/01/22 04:46:31;;;;;;;10.85;2.20;;;;;;;5.83;71.95;98938.28;5096516;28;20182;-83
2021/01/22 04:49:00;;;;;;;9.77;2.05;;;;;;;5.80;72.08;98934.00;5096711;28;20054;-83
2021/01/22 04:51:28;;;;;;;13.02;2.40;;;;;;;5.81;71.70;98942.75;5079161;28;20449;-83
2021/01/22 04:54:02;;;;;;;15.35;3.58;;;;;;;5.80;71.86;98944.50;5095780;28;20017;-83
2021/01/22 04:56:35;;;;;;;7.32;2.17;;;;;;;5.81;71.44;98940.13;5095593;28;20534;-83
2021/01/22 04:59:07;;;;;;;8.95;2.28;;;;;;;5.80;71.47;98941.88;5085858;28;20042;-82
2021/01/22 05:01:35;;;;;;;5.43;1.98;;;;;;;5.78;71.44;98948.97;5095641;28;20024;-83
2021/01/22 05:04:01;;;;;;;8.85;1.88;;;;;;;5.80;71.09;98944.50;5095366;28;20039;-83
2021/01/22 05:06:28;;;;;;;6.53;2.13;;;;;;;5.79;70.85;98952.44;5095508;28;20032;-82
2021/01/22 05:08:54;;;;;;;11.10;2.42;;;;;;;5.72;71.01;98950.91;5095391;28;20026;-83
2021/01/22 05:11:21;;;;;;;9.73;2.30;;;;;;;5.73;70.85;98948.25;5074078;28;20021;-83
2021/01/22 05:13:48;;;;;;;14.45;3.67;;;;;;;5.66;70.81;98954.59;5082000;28;20431;-83
2021/01/22 05:16:16;;;;;;;15.63;4.75;;;;;;;5.58;71.54;98959.22;5084922;28;20066;-83
2021/01/22 05:18:43;;;;;;;17.58;7.40;;;;;;;5.50;71.52;98955.03;5088914;28;20032;-80
2021/01/22 05:21:11;;;;;;;21.83;7.97;;;;;;;5.47;72.37;98960.41;5094187;28;20036;-82
2021/01/22 05:23:39;;;;;;;12.13;5.85;;;;;;;5.60;71.42;98962.66;5094913;28;20466;-83
2021/01/22 05:26:10;;;;;;;22.67;7.40;;;;;;;5.54;71.51;98961.06;5094096;28;20051;-80
2021/01/22 05:31:19;;;;;;;14.73;7.35;;;;;;;5.54;71.30;98962.84;5108676;27;20366;-82
2021/01/22 05:34:00;;;;;;;17.95;8.10;;;;;;;5.60;71.50;98962.66;5097330;28;20024;-83
2021/01/22 05:36:30;;;;;;;18.33;7.68;;;;;;;5.56;71.09;98966.28;5111135;28;20043;-83
2021/01/22 05:38:59;;;;;;;21.85;8.93;;;;;;;5.55;70.56;98968.06;5094925;28;20060;-81
2021/01/22 05:41:25;;;;;;;16.33;7.03;;;;;;;5.51;71.01;98974.31;5076538;28;20028;-80
2021/01/22 05:43:51;;;;;;;18.42;8.35;;;;;;;5.39;71.50;98983.41;5107344;28;20032;-80
2021/01/22 05:46:20;;;;;;;27.30;8.73;;;;;;;5.43;71.75;98984.16;5110982;28;20020;-80
2021/01/22 05:48:46;;;;;;;19.27;7.68;;;;;;;5.30;72.42;98991.56;5043949;22;20046;-77
2021/01/22 05:51:14;;;;;;;18.15;8.13;;;;;;;5.35;72.16;98994.91;5030104;28;20048;-78
2021/01/22 05:53:45;;;;;;;18.60;8.38;;;;;;;5.46;71.34;98998.06;5030523;28;20044;-79
2021/01/22 05:56:16;;;;;;;21.48;9.18;;;;;;;5.43;71.15;98994.69;5030439;28;20068;-78
2021/01/22 05:58:44;;;;;;;25.15;8.63;;;;;;;5.35;71.14;98989.66;5042355;28;20037;-78
2021/01/22 06:04:13;;;;;;;18.90;8.57;;;;;;;5.42;70.48;99004.34;5085664;28;20157;-79
2021/01/22 06:06:39;;;;;;;27.20;11.43;;;;;;;5.15;70.91;99001.56;5064985;28;20117;-77
2021/01/22 06:09:07;;;;;;;26.05;10.55;;;;;;;5.24;70.57;99007.47;5051980;28;20034;-78
2021/01/22 06:11:34;;;;;;;25.63;9.70;;;;;;;5.15;71.05;99008.59;5066206;28;20071;-82
2021/01/22 06:14:04;;;;;;;16.95;9.32;;;;;;;5.22;71.06;99010.16;5058389;28;20028;-78
2021/01/22 06:16:31;;;;;;;20.83;10.18;;;;;;;5.16;70.64;99007.69;5057981;28;20030;-78
2021/01/22 06:19:03;;;;;;;23.10;10.40;;;;;;;5.21;70.70;99018.03;5050973;28;20448;-78
2021/01/22 06:21:40;;;;;;;22.77;11.75;;;;;;;5.22;70.26;99014.53;5053687;28;20050;-78
2021/01/22 06:24:08;;;;;;;21.85;11.88;;;;;;;5.13;70.25;99031.38;5060695;28;20388;-78
2021/01/22 06:26:39;;;;;;;22.05;11.07;;;;;;;5.12;70.59;99032.28;5052939;28;20523;-78
2021/01/22 06:29:09;;;;;;;32.22;12.55;;;;;;;5.09;70.62;99032.38;5050876;28;20025;-77
2021/01/22 06:31:38;;;;;;;31.80;14.40;;;;;;;4.98;70.78;99037.91;5064484;28;20025;-77
2021/01/22 06:34:05;;;;;;;29.63;14.43;;;;;;;4.97;71.52;99033.56;5066014;28;20032;-78
2021/01/22 06:36:32;;;;;;;43.13;16.88;;;;;;;4.98;71.24;99035.28;5067104;28;20033;-77
2021/01/22 06:39:01;;;;;;;35.63;16.00;;;;;;;4.97;71.62;99044.06;5054052;28;20073;-79
2021/01/22 06:41:29;;;;;;;42.22;17.50;;;;;;;5.02;71.00;99042.16;5049619;28;20040;-78
2021/01/22 06:43:59;;;;;;;35.75;16.02;;;;;;;5.00;71.39;99041.38;5057988;28;20029;-78
2021/01/22 06:46:28;;;;;;;39.40;17.73;;;;;;;4.98;71.05;99051.03;5058405;28;20107;-77
2021/01/22 06:48:56;;;;;;;28.08;14.32;;;;;;;4.99;71.35;99050.13;5056107;28;20032;-79
2021/01/22 06:51:23;;;;;;;35.78;17.88;;;;;;;4.91;71.36;99057.34;5067535;28;20028;-78
2021/01/22 06:59:35;;;;;;;40.25;18.65;;;;;;;4.95;72.56;99074.75;5071259;28;20417;-78
2021/01/22 07:02:01;;;;;;;34.58;17.30;;;;;;;4.91;72.20;99078.31;5061851;28;20049;-78
2021/01/22 07:07:50;;;;;;;35.90;16.08;;;;;;;5.03;72.57;99096.38;5106327;27;20372;-77
2021/01/22 07:10:17;;;;;;;34.97;16.98;;;;;;;4.97;72.42;99099.16;5090876;28;20032;-79
2021/01/22 07:12:47;;;;;;;31.88;15.50;;;;;;;5.05;72.07;99106.84;5105619;28;20070;-78
2021/01/22 07:18:04;;;;;;;37.70;16.08;;;;;;;4.78;73.09;99110.13;5077527;22;20396;-85
2021/01/22 07:20:30;;;;;;;28.80;15.00;;;;;;;4.97;72.29;99115.78;5048476;28;20087;-87
2021/01/22 07:23:00;;;;;;;32.30;15.35;;;;;;;4.94;72.44;99115.00;5050555;28;20103;-85
2021/01/22 07:25:40;;;;;;;33.70;14.65;;;;;;;5.00;72.49;99120.97;5050918;28;20521;-85
2021/01/22 07:28:22;;;;;;;32.22;14.23;;;;;;;5.01;72.60;99127.09;5059530;28;20120;-84
2021/01/22 07:30:48;;;;;;;31.95;13.95;;;;;;;4.96;72.38;99126.31;5043166;28;20025;-86
2021/01/22 07:36:19;;;;;;;31.63;15.43;;;;;;;4.93;72.13;99132.50;5039783;28;20408;-83
2021/01/22 07:38:51;;;;;;;29.25;13.55;;;;;;;4.94;72.59;99125.50;5008019;28;20030;-82
2021/01/22 07:41:21;;;;;;;31.20;13.27;;;;;;;4.96;71.97;99134.19;4994666;28;20033;-84
2021/01/22 07:44:05;;;;;;;26.77;12.23;;;;;;;5.01;72.01;99148.09;5005069;28;20149;-83
2021/01/22 07:46:44;;;;;;;28.98;12.68;;;;;;;5.06;71.94;99140.94;5004377;28;20034;-83
2021/01/22 07:49:10;;;;;;;25.88;11.48;;;;;;;4.96;71.86;99142.06;5007933;28;20056;-84
2021/01/22 07:51:37;;;;;;;28.25;12.27;;;;;;;4.98;71.79;99143.75;5008735;28;20089;-82
2021/01/22 07:54:04;;;;;;;24.02;11.13;;;;;;;4.97;71.84;99152.53;5006031;28;20035;-82
2021/01/22 07:56:39;;;;;;;24.27;10.45;;;;;;;5.11;71.53;99152.19;5002768;28;20026;-82
2021/01/22 07:59:07;;;;;;;19.90;11.25;;;;;;;5.03;71.84;99148.88;5000982;28;20085;-82
2021/01/22 08:01:36;;;;;;;21.48;9.75;;;;;;;5.00;71.95;99160.31;5002894;28;20053;-81
2021/01/22 08:04:03;;;;;;;21.48;9.77;;;;;;;5.05;71.39;99154.97;5004365;28;20037;-82
2021/01/22 08:06:43;;;;;;;20.20;9.65;;;;;;;5.02;71.54;99162.91;4984587;28;20038;-81
2021/01/22 08:09:12;;;;;;;19.00;9.27;;;;;;;4.96;71.33;99166.56;5006562;28;20109;-82
2021/01/22 08:11:40;;;;;;;22.05;10.52;;;;;;;4.97;71.63;99164.78;5005497;28;20034;-81
2021/01/22 08:14:06;;;;;;;19.08;9.45;;;;;;;4.94;71.50;99172.75;4998910;28;20026;-82
2021/01/22 08:16:34;;;;;;;15.68;8.93;;;;;;;4.97;71.33;99178.78;5006877;28;20037;-82
2021/01/22 08:19:00;;;;;;;23.65;11.05;;;;;;;4.99;71.45;99184.00;5006835;28;20512;-80
2021/01/22 08:21:31;;;;;;;20.25;9.05;;;;;;;4.96;71.82;99186.69;4999566;28;20080;-81
2021/01/22 08:23:58;;;;;;;23.98;10.50;;;;;;;4.86;72.81;99189.53;5003452;28;20523;-82
2021/01/22 08:26:28;;;;;;;16.08;9.15;;;;;;;4.98;72.35;99192.75;5002262;28;20030;-83
2021/01/22 08:28:55;;;;;;;30.83;13.15;;;;;;;4.99;72.69;99191.88;5005511;28;20034;-81
2021/01/22 08:31:24;;;;;;;23.38;10.93;;;;;;;5.03;72.63;99196.13;5006204;28;20053;-82
2021/01/22 08:33:51;;;;;;;20.35;10.32;;;;;;;5.08;72.46;99191.63;5005198;28;20030;-82
2021/01/22 08:36:20;;;;;;;20.88;9.38;;;;;;;4.98;72.84;99198.00;5027947;28;20034;-82
2021/01/22 08:38:46;;;;;;;24.10;10.07;;;;;;;5.08;72.49;99201.28;5020947;28;20026;-81
2021/01/22 08:41:28;;;;;;;18.27;8.80;;;;;;;5.14;72.37;99209.88;5025818;28;20117;-82
2021/01/22 08:43:55;;;;;;;31.38;11.02;;;;;;;5.04;72.32;99211.00;5025871;28;20487;-82
2021/01/22 08:46:23;;;;;;;23.40;9.65;;;;;;;5.05;72.39;99212.72;5017141;28;20057;-81
2021/01/22 08:48:49;;;;;;;21.08;9.10;;;;;;;5.06;72.24;99219.72;5013717;28;20082;-82
2021/01/22 08:51:27;;;;;;;18.42;8.20;;;;;;;5.23;72.21;99221.91;5013361;28;20053;-82
2021/01/22 08:53:54;;;;;;;21.98;9.20;;;;;;;5.08;72.45;99220.50;5007468;28;20028;-80
2021/01/22 08:56:22;;;;;;;17.17;9.23;;;;;;;5.15;71.94;99223.88;5007538;28;20092;-81
2021/01/22 08:59:09;;;;;;;25.40;8.75;;;;;;;5.08;72.83;99224.91;5007186;28;20109;-81
2021/01/22 09:01:56;;;;;;;22.75;9.85;;;;;;;5.24;72.22;99233.28;5010657;28;20148;-81
2021/01/22 09:07:21;;;;;;;23.67;8.95;;;;;;;5.12;72.76;99240.56;5075479;27;20908;-80
2021/01/22 09:09:49;;;;;;;28.30;12.40;;;;;;;5.11;73.05;99244.09;5056720;28;20044;-81
2021/01/22 09:17:50;;;;;;;23.02;10.30;;;;;;;5.22;73.00;99251.72;5104510;27;20859;-82
2021/01/22 09:20:21;;;;;;;19.60;9.77;;;;;;;5.30;73.09;99254.16;5094885;28;20032;-80
2021/01/22 09:22:50;;;;;;;17.88;9.27;;;;;;;5.27;73.37;99257.72;5104271;28;20020;-79
2021/01/22 09:25:19;;;;;;;30.48;9.73;;;;;;;5.45;72.63;99268.69;5112254;28;20367;-79
2021/01/22 09:27:46;;;;;;;19.17;9.20;;;;;;;5.44;72.71;99283.56;5106375;28;20063;-78
2021/01/22 09:32:58;;;;;;;20.05;9.18;;;;;;;5.70;71.98;99289.94;5082314;27;20417;-83
2021/01/22 09:35:28;;;;;;;18.83;9.25;;;;;;;5.74;71.53;99286.31;5086727;28;20041;-81
2021/01/22 09:37:54;;;;;;;18.55;9.77;;;;;;;5.80;71.97;99293.22;5072790;28;20049;-84
2021/01/22 09:40:22;;;;;;;21.10;10.57;;;;;;;5.92;71.65;99292.91;5069929;28;20029;-81
2021/01/22 09:42:48;;;;;;;25.27;9.85;;;;;;;5.62;72.91;99297.16;5064387;28;20484;-81
2021/01/22 09:45:15;;;;;;;20.88;10.98;;;;;;;5.72;72.93;99298.66;5058563;28;20037;-80
2021/01/22 09:47:42;;;;;;;27.88;12.57;;;;;;;5.62;73.47;99302.41;5054927;28;20044;-80
2021/01/22 09:50:11;;;;;;;26.25;14.23;;;;;;;5.81;72.96;99301.03;5049489;28;20451;-81
2021/01/22 09:52:38;;;;;;;18.50;9.30;;;;;;;5.77;73.72;99307.28;5070554;28;20394;-81
2021/01/22 09:55:07;;;;;;;17.15;9.73;;;;;;;5.87;73.57;99318.44;5086962;28;20586;-80
2021/01/22 09:57:33;;;;;;;20.05;10.40;;;;;;;5.94;73.26;99321.78;5074248;28;20392;-82
2021/01/22 10:00:00;;;;;;;18.42;9.43;;;;;;;6.12;72.78;99321.31;5075943;28;20434;-81
2021/01/22 10:02:26;;;;;;;17.90;9.32;;;;;;;6.02;73.37;99327.72;5068402;28;20048;-80
2021/01/22 10:04:52;;;;;;;20.83;9.90;;;;;;;6.11;73.15;99340.63;5067072;28;20134;-82
2021/01/22 10:07:18;;;;;;;24.45;9.40;;;;;;;6.12;73.10;99345.00;5050840;28;20034;-81
2021/01/22 10:09:44;;;;;;;19.73;10.10;;;;;;;6.15;73.26;99344.03;5048684;28;20033;-84
2021/01/22 10:12:10;;;;;;;20.45;9.88;;;;;;;6.40;72.74;99346.88;5060877;28;20037;-84
2021/01/22 10:14:37;;;;;;;18.05;8.85;;;;;;;6.50;72.54;99354.53;5067303;28;20029;-84
2021/01/22 10:17:10;;;;;;;20.55;9.45;;;;;;;6.73;72.56;99351.25;5061413;28;21780;-85
2021/01/22 10:19:36;;;;;;;22.33;8.15;;;;;;;6.70;72.76;99352.22;5064590;28;20029;-85
2021/01/22 10:22:03;;;;;;;27.83;7.97;;;;;;;6.87;72.39;99356.16;5060740;28;20021;-88
2021/01/22 10:24:29;;;;;;;22.92;8.13;;;;;;;6.88;72.16;99356.09;5065962;28;20395;-86
2021/01/22 10:26:55;;;;;;;18.30;8.27;;;;;;;7.12;72.25;99354.50;5065547;28;20028;-82
2021/01/22 10:29:21;;;;;;;20.40;7.85;;;;;;;7.20;72.24;99371.88;5066079;28;20365;-83
2021/01/22 10:31:49;;;;;;;24.27;7.68;;;;;;;7.35;71.48;99360.88;5068406;28;20387;-81
2021/01/22 10:34:15;;;;;;;15.02;6.93;;;;;;;7.16;71.09;99372.88;5065166;28;20021;-82
2021/01/22 10:36:42;;;;;;;14.75;6.72;;;;;;;7.29;72.14;99355.78;5068831;28;20048;-81
2021/01/22 10:39:08;;;;;;;13.43;6.13;;;;;;;7.33;71.33;99367.06;5071407;28;20103;-81
2021/01/22 10:41:34;;;;;;;19.13;6.82;;;;;;;7.52;71.33;99365.59;5068113;28;20021;-82
2021/01/22 10:44:00;;;;;;;20.23;5.90;;;;;;;7.45;71.58;99358.78;5055426;28;20104;-81
2021/01/22 10:46:28;;;;;;;41.00;6.45;;;;;;;7.54;71.81;99363.78;5049934;28;20017;-83
2021/01/22 10:48:55;;;;;;;19.08;5.68;;;;;;;7.79;71.30;99370.94;5052391;28;20021;-81
2021/01/22 10:51:21;;;;;;;13.85;7.18;;;;;;;7.83;70.75;99367.28;5052805;28;20082;-81
2021/01/22 10:53:47;;;;;;;11.35;5.25;;;;;;;7.90;70.55;99373.19;5052394;28;20043;-83
2021/01/22 10:56:13;;;;;;;17.15;5.05;;;;;;;7.84;70.47;99370.75;5053381;28;20032;-79
2021/01/22 10:58:39;;;;;;;36.45;11.43;;;;;;;7.69;70.23;99370.34;5051600;28;20029;-85
2021/01/22 11:01:06;;;;;;;20.67;4.60;;;;;;;7.80;70.95;99371.78;5054874;28;20057;-81
2021/01/22 11:03:33;;;;;;;23.42;4.97;;;;;;;7.98;70.04;99376.47;5052106;28;20393;-78
2021/01/22 11:05:59;;;;;;;14.77;4.75;;;;;;;8.15;69.04;99385.56;5054882;28;20434;-82
2021/01/22 11:08:25;;;;;;;11.27;5.38;;;;;;;8.19;69.58;99389.84;5049217;28;20087;-81
2021/01/22 11:10:52;;;;;;;13.75;4.72;;;;;;;8.13;69.92;99390.91;5048145;28;20030;-81
2021/01/22 11:13:18;;;;;;;9.18;4.10;;;;;;;8.24;68.98;99393.19;5054659;28;20029;-81
2021/01/22 11:15:44;;;;;;;12.95;4.25;;;;;;;8.33;68.88;99395.50;5052008;28;20040;-81
2021/01/22 11:18:11;;;;;;;15.27;4.93;;;;;;;8.42;68.53;99402.25;5042037;28;20392;-81
2021/01/22 11:20:38;;;;;;;17.45;4.57;;;;;;;8.54;67.74;99396.59;5048895;28;20044;-82
2021/01/22 11:23:04;;;;;;;9.80;3.33;;;;;;;8.48;68.03;99386.25;5050566;28;20025;-83
2021/01/22 11:25:32;;;;;;;9.60;3.28;;;;;;;8.18;67.60;99404.81;5049974;28;20147;-81
2021/01/22 11:27:58;;;;;;;15.45;3.75;;;;;;;8.23;67.79;99399.38;5050680;28;20033;-81
2021/01/22 11:30:25;;;;;;;19.85;4.90;;;;;;;8.10;68.03;99402.44;5049615;28;20127;-81
2021/01/22 11:32:51;;;;;;;9.77;3.75;;;;;;;8.24;67.60;99403.75;5051964;28;20033;-82
2021/01/22 11:35:17;;;;;;;8.43;3.20;;;;;;;8.45;67.24;99402.16;5052596;28;20541;-80
2021/01/22 11:37:44;;;;;;;12.23;3.40;;;;;;;8.53;66.80;99407.19;5051222;28;20060;-79
2021/01/22 11:40:11;;;;;;;22.02;3.47;;;;;;;8.40;67.24;99412.03;5051686;28;20029;-79
2021/01/22 11:42:38;;;;;;;13.70;4.32;;;;;;;8.45;66.70;99406.56;5053443;28;20025;-80
2021/01/22 11:45:06;;;;;;;18.13;4.07;;;;;;;8.30;66.89;99402.66;5051655;28;20028;-80
2021/01/22 11:47:34;;;;;;;15.27;4.32;;;;;;;8.51;66.20;99409.03;5065183;22;20051;-85
2021/01/22 11:50:01;;;;;;;10.10;3.28;;;;;;;8.47;66.16;99404.78;5045649;28;20060;-86
2021/01/22 11:52:27;;;;;;;13.38;3.42;;;;;;;8.59;66.42;99412.28;5044192;28;20037;-81
2021/01/22 11:54:54;;;;;;;12.32;3.38;;;;;;;8.52;65.99;99408.13;5047651;28;20033;-84
2021/01/22 11:57:21;;;;;;;13.90;3.38;;;;;;;8.56;66.45;99415.00;5046948;28;20032;-82
2021/01/22 11:59:49;;;;;;;14.43;3.40;;;;;;;8.76;66.00;99410.81;5036892;28;20488;-81
2021/01/22 12:02:15;;;;;;;11.75;3.08;;;;;;;8.72;65.44;99418.84;5040320;28;20065;-82
2021/01/22 12:04:42;;;;;;;15.73;3.28;;;;;;;8.92;65.16;99421.69;5044450;28;20091;-82
2021/01/22 12:07:08;;;;;;;9.32;2.90;;;;;;;8.75;64.23;99423.16;5043360;28;20031;-81
2021/01/22 12:09:34;;;;;;;10.43;2.58;;;;;;;8.99;64.80;99408.19;5046920;28;20095;-82
2021/01/22 12:12:00;;;;;;;9.38;2.70;;;;;;;9.02;64.06;99418.66;5054339;28;20505;-83
2021/01/22 12:14:27;;;;;;;12.55;3.97;;;;;;;9.03;63.78;99419.53;5047111;28;20391;-82
2021/01/22 12:16:53;;;;;;;11.45;2.58;;;;;;;8.97;63.89;99420.63;5045329;28;20125;-82
2021/01/22 12:19:20;;;;;;;10.10;3.03;;;;;;;9.24;63.16;99417.88;5046047;28;20063;-82
2021/01/22 12:21:46;;;;;;;12.82;2.90;;;;;;;9.00;63.25;99428.41;5039832;28;20484;-83